createdAt,value
2019-04-30T00:01:17.480Z,10.80
2019-04-30T00:03:46.260Z,10.60
2019-04-30T00:06:15.683Z,10.60
2019-04-30T00:08:45.168Z,10.50
2019-04-30T00:11:16.020Z,10.60
2019-04-30T00:13:45.916Z,10.60
2019-04-30T00:16:15.351Z,10.50
2019-04-30T00:18:55.547Z,10.50
2019-04-30T00:21:17.140Z,10.50
2019-04-30T00:23:45.889Z,10.50
2019-04-30T00:26:17.030Z,10.40
2019-04-30T00:28:47.685Z,10.40
2019-04-30T00:31:17.430Z,10.10
2019-04-30T00:33:46.807Z,10.20
2019-04-30T00:36:17.406Z,10.10
2019-04-30T00:38:45.553Z,10.10
2019-04-30T00:41:15.531Z,10.00
2019-04-30T00:43:48.043Z,10.10
2019-04-30T00:46:17.373Z,10.10
2019-04-30T00:48:45.578Z,10.00
2019-04-30T00:51:20.841Z,9.90
2019-04-30T00:53:51.384Z,9.90
2019-04-30T00:56:15.805Z,9.80
2019-04-30T00:58:45.290Z,9.80
2019-04-30T01:01:18.491Z,9.80
2019-04-30T01:03:51.514Z,9.80
2019-04-30T01:06:26.762Z,9.90
2019-04-30T01:08:50.597Z,9.80
2019-04-30T01:11:19.152Z,9.70
2019-04-30T01:13:51.023Z,9.60
2019-04-30T01:16:19.474Z,9.70
2019-04-30T01:18:49.168Z,9.60
2019-04-30T01:21:18.510Z,9.70
2019-04-30T01:23:51.715Z,9.70
2019-04-30T01:26:18.755Z,9.60
2019-04-30T01:28:49.385Z,9.60
2019-04-30T01:31:18.794Z,9.60
2019-04-30T01:33:48.925Z,9.50
2019-04-30T01:36:19.149Z,9.40
2019-04-30T01:38:49.082Z,9.30
2019-04-30T01:41:21.966Z,9.30
2019-04-30T01:43:48.773Z,9.30
2019-04-30T01:46:18.916Z,9.20
2019-04-30T01:48:50.557Z,9.20
2019-04-30T01:51:21.543Z,9.30
2019-04-30T01:53:48.466Z,9.30
2019-04-30T01:56:28.931Z,9.20
2019-04-30T01:58:59.546Z,9.20
2019-04-30T02:01:31.139Z,9.20
2019-04-30T02:03:59.929Z,9.20
2019-04-30T02:06:29.448Z,9.10
2019-04-30T02:08:59.315Z,9.10
2019-04-30T02:11:28.877Z,9.10
2019-04-30T02:13:59.128Z,9.10
2019-04-30T02:16:29.025Z,9.10
2019-04-30T02:18:59.509Z,9.00
2019-04-30T02:21:29.890Z,8.90
2019-04-30T02:23:58.906Z,8.90
2019-04-30T02:26:28.638Z,8.80
2019-04-30T02:28:59.329Z,8.80
2019-04-30T02:31:30.714Z,8.70
2019-04-30T02:34:00.473Z,8.70
2019-04-30T02:36:36.572Z,8.70
2019-04-30T02:39:06.757Z,8.70
2019-04-30T02:41:36.660Z,8.70
2019-04-30T02:44:06.247Z,8.80
2019-04-30T02:46:36.061Z,8.80
2019-04-30T02:49:06.050Z,8.80
2019-04-30T02:51:36.454Z,8.70
2019-04-30T02:54:16.268Z,8.60
2019-04-30T02:56:47.238Z,8.70
2019-04-30T02:59:15.808Z,8.60
2019-04-30T03:01:44.368Z,8.60
2019-04-30T03:04:12.931Z,8.50
2019-04-30T03:06:41.489Z,8.50
2019-04-30T03:09:10.815Z,8.60
2019-04-30T03:11:40.513Z,8.40
2019-04-30T03:14:10.384Z,8.50
2019-04-30T03:17:00.205Z,8.40
2019-04-30T03:19:36.408Z,8.40
2019-04-30T03:22:06.672Z,8.40
2019-04-30T03:24:35.227Z,8.40
2019-04-30T03:27:03.809Z,8.50
2019-04-30T03:29:32.363Z,8.40
2019-04-30T03:32:02.596Z,8.30
2019-04-30T03:34:32.482Z,8.30
2019-04-30T03:37:02.117Z,8.20
2019-04-30T03:39:33.775Z,8.20
2019-04-30T03:42:01.123Z,8.20
2019-04-30T03:44:32.458Z,8.20
2019-04-30T03:46:59.902Z,8.00
2019-04-30T03:49:29.918Z,8.10
2019-04-30T03:51:59.823Z,8.00
2019-04-30T03:54:29.316Z,8.20
2019-04-30T03:57:00.778Z,8.10
2019-04-30T03:59:30.293Z,8.20
2019-04-30T04:02:06.243Z,8.20
2019-04-30T04:04:39.790Z,8.10
2019-04-30T04:07:25.214Z,8.20
2019-04-30T04:09:59.817Z,8.00
2019-04-30T04:12:30.358Z,8.00
2019-04-30T04:15:03.361Z,7.90
2019-04-30T04:17:31.467Z,8.00
2019-04-30T04:19:59.813Z,8.00
2019-04-30T04:22:30.570Z,8.10
2019-04-30T04:24:59.986Z,8.00
2019-04-30T04:27:30.221Z,8.10
2019-04-30T04:30:01.050Z,8.00
2019-04-30T04:32:30.909Z,8.10
2019-04-30T04:35:00.173Z,8.00
2019-04-30T04:37:30.218Z,8.00
2019-04-30T04:39:59.622Z,8.10
2019-04-30T04:42:30.039Z,8.10
2019-04-30T04:44:59.476Z,8.10
2019-04-30T04:47:30.734Z,8.10
2019-04-30T04:50:00.751Z,8.10
2019-04-30T04:52:31.454Z,8.20
2019-04-30T04:55:00.349Z,8.20
2019-04-30T04:57:30.410Z,8.00
2019-04-30T05:00:06.382Z,8.20
2019-04-30T05:02:34.309Z,8.30
2019-04-30T05:05:03.050Z,7.90
2019-04-30T05:07:31.683Z,8.00
2019-04-30T05:10:01.032Z,8.00
2019-04-30T05:12:29.889Z,8.00
2019-04-30T05:14:59.784Z,8.10
2019-04-30T05:17:29.707Z,8.00
2019-04-30T05:20:19.424Z,8.10
2019-04-30T05:22:48.877Z,8.00
2019-04-30T05:25:18.652Z,8.30
2019-04-30T05:27:50.949Z,8.20
2019-04-30T05:30:19.992Z,8.40
2019-04-30T05:32:50.403Z,8.40
2019-04-30T05:35:18.827Z,8.50
2019-04-30T05:37:49.379Z,8.50
2019-04-30T05:40:18.847Z,8.50
2019-04-30T05:42:49.448Z,8.50
2019-04-30T05:45:19.234Z,8.30
2019-04-30T05:47:50.286Z,8.40
2019-04-30T05:50:20.010Z,8.50
2019-04-30T05:52:49.395Z,8.60
2019-04-30T05:55:19.765Z,8.50
2019-04-30T05:57:55.784Z,8.70
2019-04-30T06:00:19.172Z,8.80
2019-04-30T06:02:49.706Z,8.70
2019-04-30T06:05:18.896Z,8.80
2019-04-30T06:07:51.566Z,8.80
2019-04-30T06:10:31.757Z,8.50
2019-04-30T06:13:02.024Z,8.60
2019-04-30T06:15:32.502Z,8.70
2019-04-30T06:18:10.738Z,8.80
2019-04-30T06:20:31.543Z,8.70
2019-04-30T06:23:00.157Z,8.60
2019-04-30T06:25:37.214Z,8.70
2019-04-30T06:27:59.816Z,8.80
2019-04-30T06:30:29.746Z,8.70
2019-04-30T06:32:59.365Z,8.80
2019-04-30T06:35:29.462Z,8.90
2019-04-30T06:37:58.955Z,9.00
2019-04-30T06:40:29.356Z,9.00
2019-04-30T06:43:00.644Z,9.10
2019-04-30T06:45:29.698Z,9.10
2019-04-30T06:48:00.333Z,9.20
2019-04-30T06:50:29.304Z,9.10
2019-04-30T06:53:01.023Z,8.80
2019-04-30T06:55:30.684Z,8.90
2019-04-30T06:58:11.467Z,9.20
2019-04-30T07:00:39.582Z,9.40
2019-04-30T07:03:09.647Z,9.50
2019-04-30T07:05:38.909Z,9.60
2019-04-30T07:08:36.018Z,9.90
2019-04-30T07:11:14.425Z,9.60
2019-04-30T07:13:45.537Z,9.50
2019-04-30T07:16:15.861Z,9.80
2019-04-30T07:18:44.375Z,9.70
2019-04-30T07:21:12.927Z,9.60
2019-04-30T07:23:41.505Z,9.50
2019-04-30T07:26:13.723Z,9.70
2019-04-30T07:28:46.922Z,10.00
2019-04-30T07:31:14.300Z,10.00
2019-04-30T07:33:40.706Z,10.10
2019-04-30T07:36:09.751Z,10.20
2019-04-30T07:38:45.006Z,10.30
2019-04-30T07:41:09.545Z,10.40
2019-04-30T07:43:39.346Z,10.50
2019-04-30T07:46:09.319Z,10.60
2019-04-30T07:48:40.193Z,10.70
2019-04-30T07:51:10.475Z,10.80
2019-04-30T07:53:40.452Z,10.90
2019-04-30T07:56:23.916Z,10.80
2019-04-30T07:58:39.268Z,10.90
2019-04-30T08:01:10.379Z,11.00
2019-04-30T08:03:52.294Z,11.20
2019-04-30T08:06:22.461Z,11.10
2019-04-30T08:08:54.726Z,11.20
2019-04-30T08:11:25.647Z,11.30
2019-04-30T08:13:52.199Z,11.40
2019-04-30T08:16:20.977Z,11.50
2019-04-30T08:18:49.471Z,11.20
2019-04-30T08:21:19.009Z,11.10
2019-04-30T08:23:48.945Z,10.90
2019-04-30T08:26:18.767Z,11.00
2019-04-30T08:28:48.802Z,11.30
2019-04-30T08:31:19.573Z,11.40
2019-04-30T08:33:49.042Z,11.20
2019-04-30T08:36:19.554Z,11.40
2019-04-30T08:38:49.546Z,11.50
2019-04-30T08:41:19.344Z,11.40
2019-04-30T08:43:49.641Z,11.80
2019-04-30T08:46:19.085Z,11.70
2019-04-30T08:48:53.067Z,11.60
2019-04-30T08:51:19.122Z,11.60
2019-04-30T08:53:48.625Z,11.70
2019-04-30T08:56:21.651Z,11.60
2019-04-30T08:58:49.113Z,11.90
2019-04-30T09:01:19.576Z,12.40
2019-04-30T09:03:50.920Z,12.60
2019-04-30T09:06:20.031Z,12.90
2019-04-30T09:08:49.368Z,12.80
2019-04-30T09:11:24.734Z,12.90
2019-04-30T09:13:48.806Z,12.90
2019-04-30T09:16:19.367Z,13.10
2019-04-30T09:18:49.455Z,13.00
2019-04-30T09:21:18.659Z,12.90
2019-04-30T09:23:50.538Z,13.10
2019-04-30T09:26:18.739Z,13.40
2019-04-30T09:28:49.281Z,13.40
2019-04-30T09:31:19.627Z,13.80
2019-04-30T09:33:49.259Z,13.70
2019-04-30T09:36:20.556Z,13.50
2019-04-30T09:38:48.563Z,13.50
2019-04-30T09:41:19.136Z,13.50
2019-04-30T09:43:49.271Z,13.60
2019-04-30T09:46:24.514Z,13.30
2019-04-30T09:48:48.069Z,13.60
2019-04-30T09:51:16.846Z,14.00
2019-04-30T09:53:55.522Z,14.50
2019-04-30T09:56:15.917Z,14.60
2019-04-30T09:58:44.567Z,15.00
2019-04-30T10:01:13.197Z,15.20
2019-04-30T10:03:42.466Z,15.30
2019-04-30T10:06:12.022Z,16.00
2019-04-30T10:08:48.355Z,15.80
2019-04-30T10:11:27.541Z,15.70
2019-04-30T10:13:56.113Z,15.70
2019-04-30T10:16:29.631Z,16.20
2019-04-30T10:18:59.200Z,17.70
2019-04-30T10:21:29.042Z,18.20
2019-04-30T10:24:11.849Z,18.30
2019-04-30T10:26:28.041Z,17.60
2019-04-30T10:28:58.474Z,17.90
2019-04-30T10:31:29.213Z,19.30
2019-04-30T10:33:58.588Z,19.20
2019-04-30T10:36:29.425Z,18.60
2019-04-30T10:38:59.509Z,20.20
2019-04-30T10:41:28.964Z,21.20
2019-04-30T10:43:59.113Z,20.90
2019-04-30T10:46:27.775Z,20.20
2019-04-30T10:48:56.454Z,20.30
2019-04-30T10:51:25.159Z,20.30
2019-04-30T10:53:53.737Z,20.80
2019-04-30T10:56:22.357Z,20.60
2019-04-30T10:58:51.062Z,20.40
2019-04-30T11:01:19.656Z,22.80
2019-04-30T11:03:48.296Z,23.80
2019-04-30T11:06:19.050Z,24.20
2019-04-30T11:08:47.447Z,24.50
2019-04-30T11:11:16.035Z,25.20
2019-04-30T11:13:44.590Z,26.30
2019-04-30T11:16:15.684Z,26.90
2019-04-30T11:18:43.648Z,26.50
2019-04-30T11:21:12.598Z,27.50
2019-04-30T11:23:41.337Z,26.20
2019-04-30T11:26:10.523Z,25.10
2019-04-30T11:28:39.336Z,25.60
2019-04-30T11:31:18.732Z,26.20
2019-04-30T11:33:47.757Z,26.10
2019-04-30T11:36:16.575Z,26.90
2019-04-30T11:38:45.201Z,27.90
2019-04-30T11:41:13.760Z,28.90
2019-04-30T11:43:42.249Z,29.40
2019-04-30T11:46:26.197Z,29.00
2019-04-30T11:48:55.009Z,29.30
2019-04-30T11:51:23.645Z,29.30
2019-04-30T11:53:52.275Z,29.60
2019-04-30T11:56:20.835Z,28.20
2019-04-30T11:58:49.385Z,26.80
2019-04-30T12:01:19.586Z,26.00
2019-04-30T12:03:49.757Z,26.50
2019-04-30T12:06:18.549Z,27.80
2019-04-30T12:09:00.886Z,28.30
2019-04-30T12:11:39.813Z,27.60
2019-04-30T12:14:08.512Z,28.60
2019-04-30T12:16:39.602Z,30.10
2019-04-30T12:19:09.026Z,30.40
2019-04-30T12:21:37.709Z,30.10
2019-04-30T12:24:06.251Z,29.90
2019-04-30T12:26:34.829Z,30.40
2019-04-30T12:29:03.445Z,31.60
2019-04-30T12:31:31.933Z,31.50
2019-04-30T12:34:00.503Z,32.00
2019-04-30T12:36:29.052Z,31.50
2019-04-30T12:38:57.617Z,31.80
2019-04-30T12:41:26.172Z,32.10
2019-04-30T12:43:54.733Z,32.30
2019-04-30T12:46:23.285Z,32.60
2019-04-30T12:48:59.571Z,31.60
2019-04-30T12:51:45.520Z,30.70
2019-04-30T12:54:16.575Z,32.00
2019-04-30T12:56:58.673Z,32.20
2019-04-30T12:59:27.207Z,31.00
2019-04-30T13:01:55.803Z,29.80
2019-04-30T13:04:24.428Z,30.80
2019-04-30T13:06:53.578Z,30.70
2019-04-30T13:09:23.018Z,30.90
2019-04-30T13:11:52.200Z,31.10
2019-04-30T13:14:21.663Z,30.70
2019-04-30T13:16:50.633Z,30.50
2019-04-30T13:19:19.129Z,29.40
2019-04-30T13:21:47.745Z,28.70
2019-04-30T13:24:16.357Z,27.90
2019-04-30T13:26:45.143Z,28.40
2019-04-30T13:29:15.349Z,27.80
2019-04-30T13:31:43.816Z,26.70
2019-04-30T13:34:25.828Z,26.50
2019-04-30T13:36:54.361Z,27.10
2019-04-30T13:39:26.895Z,27.10
2019-04-30T13:42:17.522Z,26.70
2019-04-30T13:44:41.603Z,26.20
2019-04-30T13:47:10.932Z,25.90
2019-04-30T13:49:39.602Z,25.50
2019-04-30T13:52:08.102Z,25.20
2019-04-30T13:54:36.673Z,24.70
2019-04-30T13:57:05.217Z,24.50
2019-04-30T13:59:33.786Z,24.40
2019-04-30T14:02:02.276Z,24.20
2019-04-30T14:04:50.263Z,24.00
2019-04-30T14:07:39.982Z,24.00
2019-04-30T14:10:08.518Z,23.90
2019-04-30T14:12:39.571Z,23.50
2019-04-30T14:15:09.337Z,23.30
2019-04-30T14:17:39.995Z,23.30
2019-04-30T14:20:08.712Z,23.30
2019-04-30T14:22:37.197Z,23.20
2019-04-30T14:25:07.406Z,23.10
2019-04-30T14:27:48.437Z,23.20
2019-04-30T14:30:09.218Z,22.90
2019-04-30T14:32:39.579Z,22.50
2019-04-30T14:35:09.097Z,22.50
2019-04-30T14:37:38.908Z,22.50
2019-04-30T14:40:12.300Z,22.20
2019-04-30T14:42:40.326Z,22.20
2019-04-30T14:45:11.973Z,21.90
2019-04-30T14:47:43.428Z,22.00
2019-04-30T14:50:18.560Z,22.10
2019-04-30T14:52:51.905Z,22.00
2019-04-30T14:55:34.011Z,21.90
2019-04-30T14:58:20.395Z,21.90
2019-04-30T15:00:59.473Z,21.70
2019-04-30T15:03:35.563Z,21.60
2019-04-30T15:06:04.383Z,21.40
2019-04-30T15:08:32.933Z,21.40
2019-04-30T15:11:01.415Z,21.10
2019-04-30T15:13:29.983Z,20.90
2019-04-30T15:15:58.545Z,21.00
2019-04-30T15:18:28.877Z,21.00
2019-04-30T15:20:59.311Z,21.10
2019-04-30T15:23:29.277Z,21.00
2019-04-30T15:25:58.669Z,20.90
2019-04-30T15:28:32.300Z,20.90
2019-04-30T15:30:58.688Z,20.80
2019-04-30T15:33:34.779Z,20.80
2019-04-30T15:36:04.538Z,20.80
2019-04-30T15:38:51.079Z,20.70
2019-04-30T15:41:20.562Z,20.80
2019-04-30T15:43:49.181Z,20.50
2019-04-30T15:46:17.751Z,20.50
2019-04-30T15:48:46.392Z,20.40
2019-04-30T15:51:15.598Z,20.30
2019-04-30T15:53:44.297Z,20.10
2019-04-30T15:56:12.882Z,20.10
2019-04-30T15:58:43.070Z,20.00
2019-04-30T16:01:13.417Z,20.00
2019-04-30T16:03:43.612Z,19.80
2019-04-30T16:06:12.170Z,19.80
2019-04-30T16:08:42.369Z,19.80
2019-04-30T16:11:19.477Z,19.70
2019-04-30T16:14:05.727Z,19.70
2019-04-30T16:16:35.861Z,19.80
2019-04-30T16:19:04.650Z,19.60
2019-04-30T16:21:33.292Z,19.50
2019-04-30T16:24:01.763Z,19.50
2019-04-30T16:26:30.250Z,19.50
2019-04-30T16:28:58.771Z,19.40
2019-04-30T16:31:29.079Z,19.40
2019-04-30T16:33:57.545Z,19.20
2019-04-30T16:36:26.021Z,19.00
2019-04-30T16:38:54.538Z,18.90
2019-04-30T16:41:31.623Z,19.00
2019-04-30T16:43:53.332Z,18.90
2019-04-30T16:46:21.870Z,18.80
2019-04-30T16:48:50.441Z,18.80
2019-04-30T16:51:19.077Z,18.80
2019-04-30T16:53:48.780Z,18.80
2019-04-30T16:56:18.609Z,18.80
2019-04-30T16:59:00.141Z,18.70
2019-04-30T17:01:29.585Z,18.70
2019-04-30T17:03:59.847Z,18.60
2019-04-30T17:06:33.082Z,18.70
2019-04-30T17:09:03.217Z,18.60
2019-04-30T17:11:49.797Z,18.40
2019-04-30T17:14:18.367Z,18.20
2019-04-30T17:16:48.913Z,18.30
2019-04-30T17:19:19.018Z,18.30
2019-04-30T17:21:47.498Z,18.20
2019-04-30T17:24:16.078Z,18.20
2019-04-30T17:26:44.628Z,18.10
2019-04-30T17:29:13.120Z,18.10
2019-04-30T17:31:41.756Z,18.00
2019-04-30T17:34:10.308Z,17.90
2019-04-30T17:36:39.689Z,17.80
2019-04-30T17:39:10.478Z,17.80
2019-04-30T17:41:38.975Z,17.80
2019-04-30T17:44:08.866Z,17.70
2019-04-30T17:46:38.542Z,17.70
2019-04-30T17:49:07.222Z,17.60
2019-04-30T17:51:35.836Z,17.50
2019-04-30T17:54:14.667Z,17.50
2019-04-30T17:56:44.673Z,17.50
2019-04-30T17:59:13.666Z,17.50
2019-04-30T18:01:44.019Z,17.40
2019-04-30T18:04:12.656Z,17.30
2019-04-30T18:06:41.364Z,17.20
2019-04-30T18:09:10.995Z,17.20
2019-04-30T18:11:39.736Z,17.10
2019-04-30T18:14:08.833Z,17.00
2019-04-30T18:16:38.710Z,17.00
2019-04-30T18:19:18.696Z,17.00
2019-04-30T18:21:52.166Z,17.00
2019-04-30T18:24:34.486Z,16.90
2019-04-30T18:27:10.710Z,16.90
2019-04-30T18:29:39.286Z,16.80
2019-04-30T18:32:09.329Z,16.70
2019-04-30T18:34:41.599Z,16.70
2019-04-30T18:37:10.200Z,16.60
2019-04-30T18:39:38.749Z,16.60
2019-04-30T18:42:10.773Z,16.60
2019-04-30T18:44:37.546Z,16.50
2019-04-30T18:47:06.173Z,16.50
2019-04-30T18:49:34.685Z,16.40
2019-04-30T18:52:03.253Z,16.40
2019-04-30T18:54:31.823Z,16.30
2019-04-30T18:57:00.541Z,16.20
2019-04-30T18:59:29.121Z,16.20
2019-04-30T19:01:57.758Z,16.20
2019-04-30T19:04:28.676Z,16.10
2019-04-30T19:06:58.266Z,16.10
2019-04-30T19:09:29.706Z,16.00
2019-04-30T19:12:03.190Z,15.90
2019-04-30T19:14:33.345Z,15.90
2019-04-30T19:17:03.549Z,15.90
2019-04-30T19:19:33.766Z,15.80
2019-04-30T19:22:02.245Z,15.70
2019-04-30T19:24:30.811Z,15.60
2019-04-30T19:26:59.378Z,15.50
2019-04-30T19:29:27.955Z,15.50
2019-04-30T19:31:56.695Z,15.40
2019-04-30T19:34:25.272Z,15.30
2019-04-30T19:36:53.959Z,15.30
2019-04-30T19:39:23.835Z,15.30
2019-04-30T19:41:52.469Z,15.20
2019-04-30T19:44:21.111Z,15.10
2019-04-30T19:46:49.694Z,15.00
2019-04-30T19:49:19.205Z,15.00
2019-04-30T19:51:49.537Z,14.90
2019-04-30T19:54:19.239Z,14.90
2019-04-30T19:56:47.901Z,14.90
2019-04-30T19:59:16.390Z,14.80
2019-04-30T20:01:44.901Z,14.80
2019-04-30T20:04:13.910Z,14.80
2019-04-30T20:06:42.613Z,14.70
2019-04-30T20:09:11.137Z,14.60
2019-04-30T20:11:42.399Z,14.60
2019-04-30T20:14:10.446Z,14.60
2019-04-30T20:16:40.303Z,14.50
2019-04-30T20:19:09.227Z,14.40
2019-04-30T20:21:48.484Z,14.40
2019-04-30T20:24:08.188Z,14.40
2019-04-30T20:26:36.761Z,14.20
2019-04-30T20:29:05.457Z,14.20
2019-04-30T20:31:33.961Z,14.30
2019-04-30T20:34:02.531Z,14.30
2019-04-30T20:36:31.128Z,14.20
2019-04-30T20:39:01.426Z,14.10
2019-04-30T20:41:31.588Z,14.10
2019-04-30T20:44:00.153Z,14.00
2019-04-30T20:46:34.795Z,14.00
2019-04-30T20:48:59.365Z,14.00
2019-04-30T20:51:29.095Z,13.90
2019-04-30T20:53:59.191Z,13.80
2019-04-30T20:56:29.153Z,13.80
2019-04-30T20:59:02.622Z,13.70
2019-04-30T21:01:29.424Z,13.60
2019-04-30T21:03:58.049Z,13.60
2019-04-30T21:06:26.621Z,13.50
2019-04-30T21:08:55.203Z,13.50
2019-04-30T21:11:23.794Z,13.40
2019-04-30T21:13:54.024Z,13.30
2019-04-30T21:34:09.631Z,12.80
2019-04-30T21:36:39.521Z,12.80
2019-04-30T21:39:08.991Z,12.70
2019-04-30T22:01:27.061Z,12.10
2019-04-30T22:03:55.778Z,11.90
2019-04-30T22:06:24.614Z,11.90
2019-04-30T22:08:53.257Z,11.80
2019-04-30T22:11:21.819Z,11.80
2019-04-30T22:13:50.413Z,11.80
2019-04-30T22:16:20.432Z,11.70
2019-04-30T22:18:49.381Z,11.60
2019-04-30T22:21:17.869Z,11.60
2019-04-30T22:23:46.456Z,11.60
2019-04-30T22:26:15.147Z,11.50
2019-04-30T22:28:43.665Z,11.50
2019-04-30T22:31:12.173Z,11.50
2019-04-30T22:33:40.780Z,11.40
2019-04-30T22:36:11.004Z,11.40
2019-04-30T22:41:15.047Z,11.30
2019-04-30T22:43:43.645Z,11.30
2019-04-30T22:46:13.845Z,11.30
2019-04-30T22:48:42.344Z,11.20
2019-04-30T22:51:11.015Z,11.20
2019-04-30T22:53:39.579Z,11.20
2019-04-30T22:56:08.157Z,11.20
2019-04-30T22:58:36.763Z,11.10
2019-04-30T23:01:09.855Z,11.10
2019-04-30T23:03:38.377Z,11.00
2019-04-30T23:06:07.053Z,11.00
2019-04-30T23:08:35.621Z,11.00
2019-04-30T23:11:04.279Z,10.90
2019-04-30T23:13:32.895Z,10.90
2019-04-30T23:16:02.292Z,10.80
2019-04-30T23:18:32.247Z,10.80
2019-04-30T23:21:00.926Z,10.70
2019-04-30T23:23:29.485Z,10.70
2019-04-30T23:25:58.085Z,10.70
2019-04-30T23:28:26.668Z,10.60
2019-04-30T23:30:55.217Z,10.60
2019-04-30T23:33:23.754Z,10.60
2019-04-30T23:35:52.375Z,10.50
2019-04-30T23:38:20.882Z,10.50
2019-04-30T23:40:52.491Z,10.40
2019-04-30T23:43:21.261Z,10.40
2019-04-30T23:45:50.002Z,10.40
2019-04-30T23:48:18.626Z,10.40
2019-04-30T23:50:47.166Z,10.30
2019-04-30T23:53:15.720Z,10.30
2019-04-30T23:55:44.291Z,10.30
2019-04-30T23:58:12.923Z,10.30
